Time;durP1;ratioP1;P1;durP2;ratioP2;P2;SDS_P1;SDS_P2;PMS_P1;PMS_P2;Temp;Humidity;BMP_temperature;BMP_pressure;BME280_temperature;BME280_humidity;BME280_pressure;Samples;Min_cycle;Max_cycle;Signal;HPM_P1;HPM_P2
2022/02/28 00:00:28;;;;;;;;;;;;;;;2.05;68.98;100997.44;5021714;28;20005;-78
2022/02/28 00:02:54;;;;;;;;;;;;;;;2.04;69.06;100993.06;5020275;28;19921;-78
2022/02/28 00:05:19;;;;;;;;;;;;;;;2.03;69.14;100986.06;5020427;28;19924;-78
2022/02/28 00:07:45;;;;;;;;;;;;;;;2.03;68.93;100988.69;5018533;28;19929;-78
2022/02/28 00:10:10;;;;;;;;;;;;;;;1.99;68.91;100983.47;5012980;28;19930;-78
2022/02/28 00:12:36;;;;;;;;;;;;;;;2.05;68.91;100984.38;5017313;28;19967;-77
2022/02/28 04:33:20;;;;;;;;;;;;;;;2.70;87.98;100937.03;4965850;28;19933;-78
2022/02/28 04:35:45;;;;;;;;;;;;;;;2.63;87.86;100926.50;4971335;28;19926;-83
2022/02/28 04:38:11;;;;;;;;;;;;;;;2.59;87.71;100922.97;4972834;28;20282;-79
2022/02/28 04:40:36;;;;;;;;;;;;;;;2.55;87.18;100929.03;4972487;28;19918;-82
2022/02/28 04:43:02;;;;;;;;;;;;;;;2.46;86.53;100929.84;4972870;28;19922;-82
2022/02/28 04:45:27;;;;;;;;;;;;;;;2.48;86.62;100927.25;4971330;28;20361;-78
2022/02/28 04:47:53;;;;;;;;;;;;;;;2.41;85.99;100935.91;4972618;28;20400;-78
2022/02/28 04:50:18;;;;;;;;;;;;;;;2.33;85.58;100928.88;4972220;28;19918;-83
2022/02/28 04:52:43;;;;;;;;;;;;;;;2.30;85.43;100934.06;4972567;28;19929;-78
2022/02/28 04:55:09;;;;;;;;;;;;;;;2.34;85.58;100933.22;4972701;28;19918;-81
2022/02/28 04:57:38;;;;;;;;;;;;;;;2.33;85.12;100923.66;4973243;28;19925;-80
2022/02/28 05:00:03;;;;;;;;;;;;;;;2.28;85.00;100924.44;4981705;28;20022;-81
2022/02/28 05:02:29;;;;;;;;;;;;;;;2.28;84.52;100927.06;4975896;28;20050;-81
2022/02/28 05:04:54;;;;;;;;;;;;;;;2.11;84.32;100925.19;4976089;28;20024;-82
2022/02/28 05:07:19;;;;;;;;;;;;;;;2.12;84.02;100915.59;4958581;28;20388;-81
2022/02/28 05:09:44;;;;;;;;;;;;;;;2.31;86.34;100924.47;4975955;28;19922;-84
2022/02/28 05:12:10;;;;;;;;;;;;;;;2.33;87.00;100922.75;4974673;28;19938;-82
2022/02/28 05:14:35;;;;;;;;;;;;;;;2.26;87.44;100923.56;4974440;28;19922;-82
2022/02/28 05:17:00;;;;;;;;;;;;;;;2.15;87.63;100919.13;4973250;28;19929;-86
2022/02/28 05:19:25;;;;;;;;;;;;;;;2.33;87.85;100931.50;4975704;28;19919;-81
2022/02/28 05:21:51;;;;;;;;;;;;;;;2.13;87.48;100926.06;4974518;28;19925;-81
2022/02/28 05:24:16;;;;;;;;;;;;;;;2.11;87.32;100926.91;4971066;28;20432;-81
2022/02/28 05:26:41;;;;;;;;;;;;;;;2.14;87.19;100929.56;4990497;28;19919;-82
2022/02/28 05:29:06;;;;;;;;;;;;;;;2.14;86.98;100927.81;4971064;28;19923;-84
2022/02/28 05:31:32;;;;;;;;;;;;;;;2.08;86.79;100932.97;4972467;28;20340;-81
2022/02/28 05:33:57;;;;;;;;;;;;;;;2.03;86.17;100931.16;4975478;28;20354;-81
2022/02/28 05:36:22;;;;;;;;;;;;;;;1.97;86.11;100937.22;4975298;28;20259;-81
2022/02/28 05:38:47;;;;;;;;;;;;;;;2.03;85.88;100929.44;4975287;28;19957;-81
2022/02/28 05:41:13;;;;;;;;;;;;;;;1.92;85.54;100924.09;4975280;28;19914;-82
2022/02/28 05:43:38;;;;;;;;;;;;;;;1.95;85.36;100924.13;4973875;28;19918;-82
2022/02/28 05:46:03;;;;;;;;;;;;;;;1.88;85.05;100926.66;4972586;28;20262;-81
2022/02/28 08:44:07;;;;;;;;;;;;;;;1.40;77.94;100983.56;5356481;23;19926;-81
2022/02/28 08:46:33;;;;;;;;;;;;;;;1.41;77.79;100982.72;4992858;28;20380;-80
2022/02/28 08:48:58;;;;;;;;;;;;;;;1.46;77.50;100973.19;4995654;28;19929;-81
2022/02/28 08:51:23;;;;;;;;;;;;;;;1.46;77.53;100975.81;4995674;28;20324;-83
2022/02/28 08:53:48;;;;;;;;;;;;;;;1.42;77.48;100974.91;4995342;28;19925;-81
2022/02/28 08:56:14;;;;;;;;;;;;;;;1.42;77.38;100967.06;5010656;28;19917;-81
2022/02/28 08:58:39;;;;;;;;;;;;;;;1.47;77.17;100969.75;4994263;28;20396;-80
2022/02/28 09:01:04;;;;;;;;;;;;;;;1.41;77.23;100973.13;4995372;28;19918;-82
2022/02/28 09:03:29;;;;;;;;;;;;;;;1.44;76.94;100967.09;4995612;28;20039;-80
2022/02/28 09:05:55;;;;;;;;;;;;;;;1.47;77.07;100964.53;4993475;28;19918;-80
2022/02/28 09:08:20;;;;;;;;;;;;;;;1.44;76.73;100969.72;4994042;28;19922;-82
2022/02/28 09:10:45;;;;;;;;;;;;;;;1.41;76.80;100961.81;4993974;28;19918;-81
2022/02/28 09:13:11;;;;;;;;;;;;;;;1.46;76.64;100957.53;4992151;28;19922;-80
2022/02/28 09:15:37;;;;;;;;;;;;;;;1.47;76.58;100961.91;4993901;28;19924;-80
2022/02/28 09:18:03;;;;;;;;;;;;;;;1.41;76.78;100957.47;4995263;28;20317;-82
2022/02/28 09:20:28;;;;;;;;;;;;;;;1.44;76.37;100954.03;4993946;28;20309;-80
2022/02/28 09:22:53;;;;;;;;;;;;;;;1.44;76.70;100962.72;5010054;28;19940;-82
2022/02/28 09:25:20;;;;;;;;;;;;;;;1.44;76.44;100954.03;4995119;28;19918;-82
2022/02/28 09:27:46;;;;;;;;;;;;;;;1.53;76.48;100953.25;4992340;28;19928;-80
2022/02/28 09:30:11;;;;;;;;;;;;;;;1.42;76.11;100953.13;4995055;28;20001;-80
2022/02/28 09:32:37;;;;;;;;;;;;;;;1.47;76.29;100948.84;4993674;28;20344;-82
2022/02/28 09:35:02;;;;;;;;;;;;;;;1.49;76.04;100961.94;4993632;28;19992;-82
2022/02/28 09:37:27;;;;;;;;;;;;;;;1.47;75.87;100956.69;4993520;28;19918;-80
2022/02/28 09:39:53;;;;;;;;;;;;;;;1.50;75.99;100955.81;4993501;28;20384;-81
2022/02/28 09:42:18;;;;;;;;;;;;;;;1.53;75.85;100955.88;5009262;28;19925;-80
2022/02/28 09:44:44;;;;;;;;;;;;;;;1.39;75.58;100955.72;5008440;28;19926;-81
2022/02/28 09:47:09;;;;;;;;;;;;;;;1.47;75.77;100959.31;4993358;28;19924;-82
2022/02/28 09:49:34;;;;;;;;;;;;;;;1.56;75.52;100948.94;4992642;28;19945;-80
2022/02/28 09:51:59;;;;;;;;;;;;;;;1.55;75.61;100960.28;5009290;28;19956;-80
2022/02/28 09:54:25;;;;;;;;;;;;;;;1.57;75.46;100971.59;5009459;28;19929;-81
2022/02/28 09:56:50;;;;;;;;;;;;;;;1.59;75.45;100966.41;4994396;28;20360;-81
2022/02/28 09:59:19;;;;;;;;;;;;;;;1.58;75.13;100968.16;4991866;28;20373;-81
2022/02/28 10:01:45;;;;;;;;;;;;;;;1.57;75.10;100971.59;4993637;28;20464;-82
2022/02/28 10:04:12;;;;;;;;;;;;;;;1.53;74.95;100980.28;4994178;28;19924;-82
2022/02/28 10:06:37;;;;;;;;;;;;;;;1.63;74.65;100982.13;4994127;28;19922;-82
2022/02/28 10:09:07;;;;;;;;;;;;;;;1.54;74.61;100982.00;4993994;28;19924;-81
2022/02/28 10:11:34;;;;;;;;;;;;;;;1.57;74.36;100979.44;5008879;28;20009;-81
2022/02/28 10:14:04;;;;;;;;;;;;;;;1.48;74.23;100978.44;4992564;28;19925;-80
2022/02/28 10:16:31;;;;;;;;;;;;;;;1.65;74.21;100987.38;5009241;28;19917;-80
2022/02/28 10:18:56;;;;;;;;;;;;;;;1.57;74.07;100978.56;4994046;28;19922;-82
2022/02/28 10:21:40;;;;;;;;;;;;;;;1.62;73.97;100985.59;4992762;28;20376;-81
2022/02/28 10:24:07;;;;;;;;;;;;;;;1.57;73.92;100981.19;4992605;28;20486;-81
2022/02/28 10:26:43;;;;;;;;;;;;;;;1.66;73.91;100983.94;4992659;28;19924;-81
2022/02/28 10:29:09;;;;;;;;;;;;;;;1.58;73.74;100977.69;5007153;28;19922;-82
2022/02/28 10:31:38;;;;;;;;;;;;;;;1.63;73.57;100986.50;4992511;28;20000;-82
2022/02/28 10:34:12;;;;;;;;;;;;;;;1.55;73.39;100981.16;4992466;28;20017;-81
2022/02/28 10:36:37;;;;;;;;;;;;;;;1.56;73.48;100980.28;5008209;28;19928;-82
2022/02/28 10:39:07;;;;;;;;;;;;;;;1.60;73.41;100984.72;4993607;28;19922;-82
2022/02/28 10:41:36;;;;;;;;;;;;;;;1.57;73.33;100989.03;4993685;28;19914;-83
2022/02/28 10:44:02;;;;;;;;;;;;;;;1.66;73.25;100986.53;4992083;28;19957;-82
2022/02/28 10:46:29;;;;;;;;;;;;;;;1.54;73.52;100997.69;5008515;28;19971;-81
2022/02/28 10:49:02;;;;;;;;;;;;;;;1.56;73.44;101002.94;5008148;28;19965;-80
2022/02/28 10:51:29;;;;;;;;;;;;;;;1.49;73.50;100999.38;5003451;28;19961;-81
2022/02/28 10:54:18;;;;;;;;;;;;;;;1.56;73.45;101006.41;4993398;28;20284;-81
2022/02/28 10:57:00;;;;;;;;;;;;;;;1.68;73.48;101004.84;4991385;28;19926;-80
2022/02/28 10:59:30;;;;;;;;;;;;;;;1.68;73.49;100999.63;5006992;28;19918;-82
2022/02/28 11:01:56;;;;;;;;;;;;;;;1.57;73.17;100994.25;4992001;28;19918;-82
2022/02/28 11:04:32;;;;;;;;;;;;;;;1.65;73.03;100994.34;4991907;28;20266;-81
2022/02/28 11:06:57;;;;;;;;;;;;;;;1.54;73.16;100989.84;5008241;28;19929;-84
2022/02/28 11:09:30;;;;;;;;;;;;;;;1.61;72.95;100983.88;4991719;28;19922;-82
2022/02/28 11:12:00;;;;;;;;;;;;;;;1.67;72.82;100979.56;4992716;28;20372;-81
2022/02/28 11:14:25;;;;;;;;;;;;;;;1.70;73.00;100972.63;4991713;28;20361;-81
2022/02/28 11:16:50;;;;;;;;;;;;;;;1.65;72.76;100961.25;4992964;28;20009;-80
2022/02/28 11:19:15;;;;;;;;;;;;;;;1.68;72.85;100963.03;4991672;28;19918;-84
2022/02/28 11:21:41;;;;;;;;;;;;;;;1.60;72.98;100965.56;4992929;28;20376;-83
2022/02/28 11:24:06;;;;;;;;;;;;;;;1.63;72.75;100956.00;4992612;28;19922;-80
2022/02/28 11:26:31;;;;;;;;;;;;;;;1.59;72.94;100958.56;4992941;28;19994;-82
2022/02/28 11:28:58;;;;;;;;;;;;;;;1.61;72.77;100952.50;4991477;28;19957;-82
2022/02/28 11:31:24;;;;;;;;;;;;;;;1.64;72.60;100946.44;4992933;28;20360;-81
2022/02/28 11:33:51;;;;;;;;;;;;;;;1.62;72.61;100943.78;4986858;28;19953;-83
2022/02/28 11:36:16;;;;;;;;;;;;;;;1.62;72.59;100935.09;4992337;28;19918;-82
2022/02/28 11:38:42;;;;;;;;;;;;;;;1.57;72.53;100935.03;4992543;28;20353;-83
2022/02/28 11:41:08;;;;;;;;;;;;;;;1.66;72.55;100933.38;5007633;28;19921;-81
2022/02/28 11:43:38;;;;;;;;;;;;;;;1.62;72.39;100929.88;4989899;28;19923;-82
2022/02/28 11:46:06;;;;;;;;;;;;;;;1.66;72.49;100928.16;4991285;28;19929;-81
2022/02/28 11:48:34;;;;;;;;;;;;;;;1.64;72.50;100933.38;4992624;28;20016;-80
2022/02/28 11:51:00;;;;;;;;;;;;;;;1.70;72.58;100933.44;5007326;28;19917;-82
2022/02/28 11:53:37;;;;;;;;;;;;;;;1.69;72.63;100934.31;4990704;28;20380;-80
2022/02/28 11:56:22;;;;;;;;;;;;;;;1.71;72.36;100927.38;5006913;28;19918;-81
2022/02/28 11:58:48;;;;;;;;;;;;;;;1.68;72.68;100916.88;4991221;28;19921;-81
2022/02/28 12:01:14;;;;;;;;;;;;;;;1.70;72.43;100917.75;4992416;28;19924;-81
2022/02/28 12:03:47;;;;;;;;;;;;;;;1.69;72.20;100922.97;4992325;28;19972;-81
2022/02/28 12:06:32;;;;;;;;;;;;;;;1.72;72.34;100928.22;4991836;28;19918;-81
2022/02/28 12:08:58;;;;;;;;;;;;;;;1.72;72.36;100912.56;4996290;28;19933;-80
2022/02/28 12:11:28;;;;;;;;;;;;;;;1.72;72.22;100909.94;4995109;28;19918;-82
2022/02/28 12:14:04;;;;;;;;;;;;;;;1.76;72.30;100916.97;4993134;28;19925;-81
2022/02/28 12:19:30;;;;;;;;;;;;;;;1.79;72.49;100903.94;4996538;28;19964;-80
2022/02/28 12:22:04;;;;;;;;;;;;;;;1.82;72.26;100909.19;4995065;28;20016;-82
2022/02/28 12:24:48;;;;;;;;;;;;;;;1.87;72.50;100904.00;4994888;28;19968;-81
2022/02/28 12:27:16;;;;;;;;;;;;;;;1.81;72.28;100902.22;5011068;28;20368;-84
2022/02/28 12:29:42;;;;;;;;;;;;;;;1.80;72.41;100892.59;4993524;28;19964;-82
2022/02/28 12:32:08;;;;;;;;;;;;;;;1.85;72.50;100896.16;4994648;28;20335;-81
2022/02/28 12:34:34;;;;;;;;;;;;;;;1.82;72.35;100888.28;4994830;28;20422;-84
2022/02/28 12:37:00;;;;;;;;;;;;;;;1.79;72.08;100878.66;4994423;28;19944;-82
2022/02/28 12:39:25;;;;;;;;;;;;;;;1.79;72.26;100878.66;5011004;28;19918;-81
2022/02/28 12:41:55;;;;;;;;;;;;;;;1.84;72.22;100885.69;4995878;28;19933;-81
2022/02/28 12:44:21;;;;;;;;;;;;;;;1.83;72.18;100884.78;4994530;28;19971;-81
2022/02/28 12:46:48;;;;;;;;;;;;;;;1.86;72.08;100879.59;4995697;28;20864;-81
2022/02/28 12:49:15;;;;;;;;;;;;;;;1.87;72.14;100876.13;4995618;28;19940;-83
2022/02/28 12:51:41;;;;;;;;;;;;;;;2.14;74.53;100880.75;4995531;28;19928;-83
2022/02/28 12:54:09;;;;;;;;;;;;;;;2.36;77.75;100870.47;5009830;28;19925;-83
2022/02/28 12:56:40;;;;;;;;;;;;;;;2.47;80.15;100868.84;4995650;28;20403;-82
2022/02/28 12:59:07;;;;;;;;;;;;;;;2.57;82.36;100864.53;5009255;28;20257;-81
2022/02/28 13:01:32;;;;;;;;;;;;;;;2.67;83.92;100860.25;5010419;28;19921;-83
2022/02/28 13:03:59;;;;;;;;;;;;;;;2.77;85.17;100855.94;4995372;28;19929;-83
2022/02/28 13:06:28;;;;;;;;;;;;;;;2.81;85.98;100862.91;5010221;28;19921;-81
2022/02/28 13:09:03;;;;;;;;;;;;;;;2.80;87.00;100856.81;5010331;28;20008;-84
2022/02/28 13:11:29;;;;;;;;;;;;;;;2.79;87.64;100855.06;5009532;28;19918;-84
2022/02/28 13:13:55;;;;;;;;;;;;;;;2.79;88.76;100862.03;5004462;28;20323;-84
2022/02/28 13:16:20;;;;;;;;;;;;;;;2.77;89.57;100858.56;4995166;28;19918;-81
2022/02/28 13:18:46;;;;;;;;;;;;;;;2.75;90.93;100857.69;4992153;28;19980;-82
2022/02/28 13:21:11;;;;;;;;;;;;;;;2.80;91.98;100850.72;4993942;28;19922;-81
2022/02/28 13:23:39;;;;;;;;;;;;;;;2.86;93.37;100859.47;4993124;28;20296;-81
2022/02/28 13:26:04;;;;;;;;;;;;;;;2.95;95.46;100850.78;4995074;28;20356;-84
2022/02/28 13:28:35;;;;;;;;;;;;;;;3.20;97.70;100861.41;4992291;28;20041;-82
2022/02/28 13:31:04;;;;;;;;;;;;;;;3.33;100.00;100857.94;5009521;28;19926;-82
2022/02/28 13:33:31;;;;;;;;;;;;;;;3.47;100.00;100854.53;4993083;28;19921;-82
2022/02/28 13:35:56;;;;;;;;;;;;;;;3.57;100.00;100851.03;5009277;28;20380;-82
2022/02/28 13:38:23;;;;;;;;;;;;;;;3.61;100.00;100853.69;4992696;28;19932;-83
2022/02/28 13:40:48;;;;;;;;;;;;;;;3.73;100.00;100852.81;5009320;28;19922;-81
2022/02/28 13:43:14;;;;;;;;;;;;;;;3.79;100.00;100852.84;4992052;28;20293;-81
2022/02/28 13:45:43;;;;;;;;;;;;;;;3.87;100.00;100847.63;5008173;28;19922;-81
2022/02/28 13:48:16;;;;;;;;;;;;;;;3.90;100.00;100842.38;4992774;28;20373;-84
2022/02/28 13:50:44;;;;;;;;;;;;;;;3.93;100.00;100849.38;4992716;28;19925;-81
2022/02/28 13:53:10;;;;;;;;;;;;;;;3.95;100.00;100838.00;4993308;28;20372;-85
2022/02/28 13:55:35;;;;;;;;;;;;;;;4.06;100.00;100832.78;5009626;28;19921;-81
2022/02/28 13:58:02;;;;;;;;;;;;;;;4.08;100.00;100836.25;4986698;28;19921;-83
2022/02/28 14:00:28;;;;;;;;;;;;;;;4.09;100.00;100835.41;4994123;28;19926;-82
2022/02/28 14:02:54;;;;;;;;;;;;;;;4.13;100.00;100837.16;4993506;28;20320;-82
2022/02/28 14:05:22;;;;;;;;;;;;;;;4.21;100.00;100844.16;4993742;28;19933;-81
2022/02/28 14:07:58;;;;;;;;;;;;;;;4.23;100.00;100830.16;4992161;28;19932;-86
2022/02/28 14:10:30;;;;;;;;;;;;;;;4.30;100.00;100836.28;4992698;28;19926;-81
2022/02/28 14:12:55;;;;;;;;;;;;;;;4.26;100.00;100832.78;5007941;28;19933;-81
2022/02/28 14:15:24;;;;;;;;;;;;;;;4.34;100.00;100830.13;4994135;28;19918;-81
2022/02/28 14:17:57;;;;;;;;;;;;;;;4.38;100.00;100829.28;4993501;28;19957;-81
2022/02/28 14:20:23;;;;;;;;;;;;;;;4.42;100.00;100825.78;4992549;28;20008;-81
2022/02/28 14:23:02;;;;;;;;;;;;;;;4.49;100.00;100818.78;4993528;28;19922;-81
2022/02/28 14:25:27;;;;;;;;;;;;;;;4.48;100.00;100817.91;4993519;28;19980;-81
2022/02/28 14:27:52;;;;;;;;;;;;;;;4.13;100.00;100813.56;4991768;28;19961;-81
2022/02/28 14:30:18;;;;;;;;;;;;;;;3.33;100.00;100815.16;4992541;28;20376;-83
2022/02/28 14:32:43;;;;;;;;;;;;;;;3.06;100.00;100822.94;4992174;28;20019;-82
2022/02/28 14:35:10;;;;;;;;;;;;;;;2.94;100.00;100822.88;4993270;28;19921;-81
2022/02/28 14:37:35;;;;;;;;;;;;;;;2.81;99.35;100821.94;4993468;28;19972;-82
2022/02/28 14:40:00;;;;;;;;;;;;;;;2.70;97.82;100826.22;4993071;28;19922;-81
2022/02/28 14:42:26;;;;;;;;;;;;;;;2.68;96.10;100818.38;5007581;28;19926;-81
2022/02/28 14:44:51;;;;;;;;;;;;;;;2.59;94.86;100814.84;4991364;28;19983;-84
2022/02/28 14:47:17;;;;;;;;;;;;;;;2.69;94.20;100807.00;4992132;28;19927;-85
2022/02/28 14:49:42;;;;;;;;;;;;;;;2.53;92.81;100792.09;4991782;28;19926;-85
2022/02/28 14:52:07;;;;;;;;;;;;;;;2.45;92.09;100793.81;4991464;28;19930;-82
2022/02/28 14:54:32;;;;;;;;;;;;;;;2.47;91.59;100789.44;4992161;28;19957;-80
2022/02/28 14:56:58;;;;;;;;;;;;;;;2.33;90.62;100789.34;4991706;28;19929;-82
2022/02/28 14:59:23;;;;;;;;;;;;;;;2.32;89.89;100785.00;4992063;28;20352;-81
2022/02/28 15:01:48;;;;;;;;;;;;;;;2.32;89.41;100785.00;4992059;28;20289;-82
2022/02/28 15:04:15;;;;;;;;;;;;;;;2.30;89.15;100790.22;4993261;28;19984;-81
2022/02/28 15:06:42;;;;;;;;;;;;;;;2.16;88.11;100794.47;4993364;28;19929;-82
2022/02/28 15:09:07;;;;;;;;;;;;;;;2.16;87.59;100789.25;4992011;28;19925;-80
2022/02/28 15:11:32;;;;;;;;;;;;;;;2.11;86.95;100786.59;4992932;28;20004;-82
2022/02/28 15:13:58;;;;;;;;;;;;;;;2.07;86.69;100781.31;4992088;28;20345;-81
2022/02/28 15:16:23;;;;;;;;;;;;;;;1.99;86.42;100781.25;4991744;28;19988;-81
2022/02/28 15:18:48;;;;;;;;;;;;;;;2.02;85.67;100785.66;4993046;28;20313;-81
2022/02/28 15:21:15;;;;;;;;;;;;;;;1.88;85.20;100778.53;4991679;28;19918;-81
2022/02/28 15:23:40;;;;;;;;;;;;;;;1.92;84.89;100776.84;4992924;28;20423;-80
2022/02/28 15:26:06;;;;;;;;;;;;;;;1.90;84.74;100776.84;4991577;28;19917;-81
2022/02/28 15:28:31;;;;;;;;;;;;;;;1.92;84.57;100779.47;4991493;28;19925;-82
2022/02/28 15:30:56;;;;;;;;;;;;;;;1.81;84.16;100768.91;4987159;28;19924;-80
2022/02/28 15:33:21;;;;;;;;;;;;;;;1.81;83.79;100772.41;4992772;28;19922;-82
2022/02/28 15:35:47;;;;;;;;;;;;;;;1.75;83.91;100759.28;5007818;28;19972;-82
2022/02/28 15:38:15;;;;;;;;;;;;;;;1.76;83.97;100758.41;4991382;28;19921;-82
2022/02/28 15:40:40;;;;;;;;;;;;;;;1.83;83.34;100748.88;4989420;28;19937;-81
2022/02/28 15:43:05;;;;;;;;;;;;;;;1.88;83.32;100747.19;4987800;28;19996;-82
2022/02/28 15:45:31;;;;;;;;;;;;;;;1.85;82.60;100741.97;4988582;28;19980;-82
2022/02/28 15:47:56;;;;;;;;;;;;;;;1.73;82.67;100742.72;4989234;28;20344;-82
2022/02/28 15:50:22;;;;;;;;;;;;;;;1.75;82.89;100734.88;4989389;28;20384;-82
2022/02/28 15:52:50;;;;;;;;;;;;;;;1.84;82.67;100740.19;4989520;28;20182;-83
2022/02/28 15:55:16;;;;;;;;;;;;;;;1.87;82.79;100749.78;4989980;28;19925;-82
2022/02/28 15:57:41;;;;;;;;;;;;;;;1.63;82.90;100743.50;4989646;28;19925;-85
2022/02/28 16:00:09;;;;;;;;;;;;;;;1.68;83.00;100747.03;4990427;28;20013;-82
2022/02/28 16:02:35;;;;;;;;;;;;;;;1.72;83.08;100745.31;4987203;28;19926;-82
2022/02/28 16:05:00;;;;;;;;;;;;;;;1.64;82.68;100747.84;4990470;28;19922;-83
2022/02/28 16:07:25;;;;;;;;;;;;;;;1.81;82.68;100746.25;4988766;28;19922;-81
2022/02/28 16:09:51;;;;;;;;;;;;;;;1.64;82.54;100747.84;4988482;28;20356;-82
2022/02/28 16:12:16;;;;;;;;;;;;;;;1.63;82.63;100752.22;5003757;28;19980;-83
2022/02/28 16:14:41;;;;;;;;;;;;;;;1.57;82.61;100746.94;4989080;28;19976;-82
2022/02/28 16:17:06;;;;;;;;;;;;;;;1.62;82.67;100749.59;4990598;28;20356;-83
2022/02/28 16:19:32;;;;;;;;;;;;;;;1.60;82.74;100744.34;5001879;28;19929;-84
2022/02/28 16:21:57;;;;;;;;;;;;;;;1.46;82.67;100745.94;4992310;28;19929;-83
2022/02/28 16:24:22;;;;;;;;;;;;;;;1.68;82.60;100749.66;4990224;28;20005;-82
2022/02/28 16:26:48;;;;;;;;;;;;;;;1.50;82.20;100745.13;4992316;28;19922;-83
2022/02/28 16:29:13;;;;;;;;;;;;;;;1.44;82.04;100750.28;4991089;28;19957;-82
2022/02/28 16:31:39;;;;;;;;;;;;;;;1.47;82.14;100745.09;4992068;28;19918;-81
2022/02/28 16:34:04;;;;;;;;;;;;;;;1.46;82.04;100748.56;4991044;28;19921;-82
2022/02/28 16:36:30;;;;;;;;;;;;;;;1.55;81.87;100756.50;4992151;28;19925;-82
2022/02/28 16:38:55;;;;;;;;;;;;;;;1.41;81.88;100755.47;4990964;28;19928;-83
2022/02/28 16:41:22;;;;;;;;;;;;;;;1.39;81.89;100752.00;4990807;28;20451;-83
2022/02/28 16:43:48;;;;;;;;;;;;;;;1.54;82.11;100762.56;4999837;28;19948;-81
2022/02/28 16:46:13;;;;;;;;;;;;;;;1.38;81.87;100747.63;4990482;28;20365;-83
2022/02/28 16:48:38;;;;;;;;;;;;;;;1.46;81.67;100759.00;4991900;28;19932;-80
2022/02/28 16:51:03;;;;;;;;;;;;;;;1.35;81.74;100765.88;4990848;28;20450;-81
2022/02/28 16:53:29;;;;;;;;;;;;;;;1.32;81.50;100771.06;5006802;28;19918;-82
2022/02/28 16:55:55;;;;;;;;;;;;;;;1.37;81.41;100769.38;4993734;28;20251;-82
2022/02/28 16:58:20;;;;;;;;;;;;;;;1.46;81.17;100772.06;5007873;28;19944;-80
2022/02/28 17:00:46;;;;;;;;;;;;;;;1.32;80.90;100771.91;4990661;28;20772;-80
2022/02/28 17:03:11;;;;;;;;;;;;;;;1.39;81.25;100778.97;4992829;28;19945;-80
2022/02/28 17:05:37;;;;;;;;;;;;;;;1.27;81.16;100776.22;5010360;28;19983;-80
2022/02/28 17:08:02;;;;;;;;;;;;;;;1.29;81.46;100777.09;4995184;28;20297;-80
2022/02/28 17:10:28;;;;;;;;;;;;;;;1.27;81.04;100790.16;4993936;28;19921;-79
2022/02/28 17:12:53;;;;;;;;;;;;;;;1.35;81.21;100784.16;4992896;28;20364;-79
2022/02/28 17:15:18;;;;;;;;;;;;;;;1.29;80.77;100782.34;4994611;28;19922;-79
2022/02/28 17:17:44;;;;;;;;;;;;;;;1.39;80.85;100778.97;4994879;28;20359;-80
2022/02/28 17:20:10;;;;;;;;;;;;;;;1.34;80.47;100783.28;4993919;28;20589;-80
2022/02/28 17:22:35;;;;;;;;;;;;;;;1.24;80.42;100789.25;4992788;28;20404;-79
2022/02/28 17:25:00;;;;;;;;;;;;;;;1.32;80.48;100798.03;4994179;28;19926;-78
2022/02/28 17:27:26;;;;;;;;;;;;;;;1.27;80.47;100794.50;4993834;28;19980;-78
2022/02/28 17:29:52;;;;;;;;;;;;;;;1.27;79.90;100805.81;4993373;28;19926;-78
2022/02/28 17:32:17;;;;;;;;;;;;;;;1.23;79.94;100798.81;4994763;28;19922;-80
2022/02/28 17:34:43;;;;;;;;;;;;;;;1.38;79.86;100807.69;5009363;28;19928;-79
2022/02/28 17:37:10;;;;;;;;;;;;;;;1.25;79.48;100806.69;5009914;28;19928;-81
2022/02/28 17:39:37;;;;;;;;;;;;;;;1.23;79.36;100804.03;4993896;28;20308;-80
2022/02/28 17:42:03;;;;;;;;;;;;;;;1.31;79.28;100806.75;4993338;28;20451;-80
2022/02/28 17:44:28;;;;;;;;;;;;;;;1.30;79.38;100814.56;4992065;28;19957;-79
2022/02/28 17:46:53;;;;;;;;;;;;;;;1.23;78.99;100814.50;4994789;28;19922;-79
2022/02/28 17:49:19;;;;;;;;;;;;;;;1.27;79.21;100813.66;4994892;28;20008;-81
2022/02/28 17:51:44;;;;;;;;;;;;;;;1.24;78.83;100815.34;4994534;28;19968;-81
2022/02/28 17:54:10;;;;;;;;;;;;;;;1.21;79.04;100816.22;4994585;28;19922;-79
2022/02/28 17:56:35;;;;;;;;;;;;;;;1.23;78.88;100818.84;4994509;28;19918;-80
2022/02/28 17:59:00;;;;;;;;;;;;;;;1.31;79.00;100811.06;5008439;28;20899;-79
2022/02/28 18:01:25;;;;;;;;;;;;;;;1.26;78.46;100819.75;4992308;28;19922;-78
2022/02/28 18:03:51;;;;;;;;;;;;;;;1.27;78.14;100821.47;5009467;28;19943;-79
2022/02/28 18:06:16;;;;;;;;;;;;;;;1.20;78.29;100824.03;4992376;28;19954;-79
2022/02/28 18:08:42;;;;;;;;;;;;;;;1.17;78.15;100835.31;4994269;28;19928;-78
2022/02/28 18:11:07;;;;;;;;;;;;;;;1.19;78.37;100833.56;4994079;28;20327;-79
2022/02/28 18:13:34;;;;;;;;;;;;;;;1.24;78.27;100825.81;4990844;28;19922;-78
2022/02/28 18:16:00;;;;;;;;;;;;;;;1.23;78.02;100839.75;5007709;28;19928;-78
2022/02/28 18:18:25;;;;;;;;;;;;;;;1.18;77.77;100841.38;4994212;28;19917;-79
2022/02/28 18:20:50;;;;;;;;;;;;;;;1.16;78.08;100846.59;4992056;28;20814;-79
2022/02/28 18:23:16;;;;;;;;;;;;;;;1.21;77.71;100850.16;5008981;28;19957;-79
2022/02/28 18:25:44;;;;;;;;;;;;;;;1.23;77.88;100851.03;5008953;28;19921;-78
2022/02/28 18:28:10;;;;;;;;;;;;;;;1.22;77.49;100854.50;5007908;28;20395;-78
2022/02/28 18:30:36;;;;;;;;;;;;;;;1.26;77.64;100851.09;4993121;28;19926;-80
2022/02/28 18:33:02;;;;;;;;;;;;;;;1.24;77.71;100858.00;4993564;28;20384;-80
2022/02/28 18:35:28;;;;;;;;;;;;;;;1.31;77.30;100852.84;5008292;28;20289;-77
2022/02/28 18:37:57;;;;;;;;;;;;;;;1.22;77.17;100853.63;4990333;28;19926;-78
2022/02/28 18:40:23;;;;;;;;;;;;;;;1.22;76.82;100853.63;4993157;28;20293;-78
2022/02/28 18:42:50;;;;;;;;;;;;;;;1.38;76.76;100849.47;5007228;28;19922;-79
2022/02/28 18:45:16;;;;;;;;;;;;;;;1.20;76.64;100856.22;4993547;28;20013;-80
2022/02/28 18:47:41;;;;;;;;;;;;;;;1.28;76.82;100861.56;5006356;28;19997;-78
2022/02/28 18:50:07;;;;;;;;;;;;;;;1.23;76.79;100866.72;4992168;28;19921;-79
2022/02/28 18:52:32;;;;;;;;;;;;;;;1.28;76.36;100864.16;5006891;28;20373;-80
2022/02/28 18:54:58;;;;;;;;;;;;;;;1.36;76.30;100866.88;4993452;28;20328;-78
2022/02/28 18:57:23;;;;;;;;;;;;;;;1.29;76.11;100859.81;4991828;28;20033;-78
2022/02/28 18:59:48;;;;;;;;;;;;;;;1.16;75.96;100859.66;4988689;28;19922;-78
2022/02/28 19:02:14;;;;;;;;;;;;;;;1.16;76.01;100848.34;4993225;28;20312;-78
2022/02/28 19:04:40;;;;;;;;;;;;;;;1.31;76.11;100845.03;4992292;28;19922;-80
2022/02/28 19:07:05;;;;;;;;;;;;;;;1.27;75.95;100838.91;4992992;28;20373;-80
2022/02/28 19:09:31;;;;;;;;;;;;;;;1.25;76.28;100844.09;4993160;28;19925;-79
2022/02/28 19:11:57;;;;;;;;;;;;;;;1.24;75.86;100834.50;4991709;28;19926;-80
2022/02/28 19:14:23;;;;;;;;;;;;;;;1.30;75.89;100831.09;4990457;28;20380;-80
2022/02/28 19:16:50;;;;;;;;;;;;;;;1.30;75.68;100841.53;4992185;28;19931;-79
2022/02/28 19:19:24;;;;;;;;;;;;;;;1.33;75.85;100844.19;4992677;28;19965;-78
2022/02/28 19:21:50;;;;;;;;;;;;;;;1.31;75.28;100847.63;4992475;28;19932;-80
2022/02/28 19:24:16;;;;;;;;;;;;;;;1.27;75.28;100842.38;4993019;28;19914;-78
2022/02/28 19:26:41;;;;;;;;;;;;;;;1.34;75.31;100842.44;4991493;28;19960;-78
2022/02/28 19:29:06;;;;;;;;;;;;;;;1.30;75.13;100835.47;4994835;28;19984;-79
2022/02/28 19:31:32;;;;;;;;;;;;;;;1.32;75.19;100844.19;4992680;28;19921;-77
2022/02/28 19:33:58;;;;;;;;;;;;;;;1.33;75.02;100840.72;4991675;28;20044;-78
2022/02/28 19:36:23;;;;;;;;;;;;;;;1.35;74.82;100845.06;5007603;28;19955;-78
2022/02/28 19:38:48;;;;;;;;;;;;;;;1.33;74.76;100841.59;4990766;28;19928;-80
2022/02/28 19:41:14;;;;;;;;;;;;;;;1.26;74.64;100843.25;4991565;28;19926;-79
2022/02/28 19:43:44;;;;;;;;;;;;;;;1.30;74.72;100843.28;4987422;28;20012;-80
2022/02/28 19:46:12;;;;;;;;;;;;;;;1.31;74.79;100845.03;4989946;28;19926;-79
2022/02/28 19:48:37;;;;;;;;;;;;;;;1.35;74.76;100839.00;4992367;28;19953;-79
2022/02/28 19:51:03;;;;;;;;;;;;;;;1.32;74.48;100846.78;4989796;28;19972;-79
2022/02/28 19:53:28;;;;;;;;;;;;;;;1.36;74.54;100841.63;4991787;28;20791;-78
2022/02/28 19:55:54;;;;;;;;;;;;;;;1.32;74.57;100844.19;4992413;28;19925;-78
2022/02/28 19:58:19;;;;;;;;;;;;;;;1.35;74.36;100842.47;4991548;28;19918;-77